sensor_id;sensor_type;location;lat;lon;timestamp;pressure;altitude;pressure_sealevel;temperature;humidity
13029;BME280;6581;42.662;23.402;2023-02-10T00:04:42;97141.22;;;-4.58;71.45
13029;BME280;6581;42.662;23.402;2023-02-10T00:21:53;97162.66;;;-4.51;71.92
13029;BME280;6581;42.662;23.402;2023-02-10T00:25:06;97156.19;;;-4.41;67.69
13029;BME280;6581;42.662;23.402;2023-02-10T00:28:25;97134.34;;;-4.64;68.65
13029;BME280;6581;42.662;23.402;2023-02-10T00:34:23;97134.91;;;-4.80;68.56
13029;BME280;6581;42.662;23.402;2023-02-10T00:40:23;97129.00;;;-5.05;69.16
13029;BME280;6581;42.662;23.402;2023-02-10T00:43:07;97136.19;;;-4.89;69.10
13029;BME280;6581;42.662;23.402;2023-02-10T00:51:29;97111.72;;;-5.05;68.98
13029;BME280;6581;42.662;23.402;2023-02-10T00:54:26;97114.44;;;-5.00;68.73
13029;BME280;6581;42.662;23.402;2023-02-10T00:57:23;97131.38;;;-4.85;69.17
13029;BME280;6581;42.662;23.402;2023-02-10T01:00:04;97116.44;;;-5.02;69.39
13029;BME280;6581;42.662;23.402;2023-02-10T01:02:41;97122.56;;;-4.96;69.45
13029;BME280;6581;42.662;23.402;2023-02-10T01:05:21;97107.06;;;-4.96;69.20
13029;BME280;6581;42.662;23.402;2023-02-10T01:12:40;97107.69;;;-4.82;68.97
13029;BME280;6581;42.662;23.402;2023-02-10T01:15:57;97102.56;;;-5.07;68.83
13029;BME280;6581;42.662;23.402;2023-02-10T01:19:51;97126.28;;;-4.92;69.90
13029;BME280;6581;42.662;23.402;2023-02-10T01:22:53;97118.34;;;-4.90;69.73
13029;BME280;6581;42.662;23.402;2023-02-10T01:26:45;97105.91;;;-5.00;71.16
13029;BME280;6581;42.662;23.402;2023-02-10T01:32:59;97087.66;;;-5.23;70.98
13029;BME280;6581;42.662;23.402;2023-02-10T01:36:20;97109.03;;;-5.16;70.74
13029;BME280;6581;42.662;23.402;2023-02-10T02:55:50;97017.78;;;-6.84;76.34
13029;BME280;6581;42.662;23.402;2023-02-10T03:00:40;97034.66;;;-6.88;76.28
13029;BME280;6581;42.662;23.402;2023-02-10T03:11:00;97040.84;;;-7.02;77.44
13029;BME280;6581;42.662;23.402;2023-02-10T04:21:34;97013.34;;;-6.70;77.50
13029;BME280;6581;42.662;23.402;2023-02-10T04:30:18;97036.53;;;-6.70;78.33
13029;BME280;6581;42.662;23.402;2023-02-10T04:33:10;97034.03;;;-6.83;79.06
13029;BME280;6581;42.662;23.402;2023-02-10T04:40:25;97035.53;;;-6.69;78.99
13029;BME280;6581;42.662;23.402;2023-02-10T04:43:57;97017.41;;;-6.94;79.21
13029;BME280;6581;42.662;23.402;2023-02-10T04:47:39;97037.59;;;-6.84;79.26
13029;BME280;6581;42.662;23.402;2023-02-10T04:51:09;97015.09;;;-7.02;79.67
13029;BME280;6581;42.662;23.402;2023-02-10T04:58:43;97033.91;;;-7.08;79.31
13029;BME280;6581;42.662;23.402;2023-02-10T05:01:47;97019.88;;;-7.12;79.91
13029;BME280;6581;42.662;23.402;2023-02-10T05:05:24;97017.50;;;-7.13;80.05
13029;BME280;6581;42.662;23.402;2023-02-10T05:08:56;97027.13;;;-6.96;80.19
13029;BME280;6581;42.662;23.402;2023-02-10T05:12:20;97051.66;;;-6.80;80.19
13029;BME280;6581;42.662;23.402;2023-02-10T05:24:01;97043.00;;;-7.05;79.07
13029;BME280;6581;42.662;23.402;2023-02-10T05:26:44;97055.41;;;-6.83;78.47
13029;BME280;6581;42.662;23.402;2023-02-10T05:29:40;97046.59;;;-7.06;78.38
13029;BME280;6581;42.662;23.402;2023-02-10T06:47:09;97131.47;;;-6.60;76.20
13029;BME280;6581;42.662;23.402;2023-02-10T06:49:44;97147.63;;;-6.34;76.38
13029;BME280;6581;42.662;23.402;2023-02-10T06:52:22;97152.19;;;-6.29;76.55
13029;BME280;6581;42.662;23.402;2023-02-10T06:55:02;97149.97;;;-6.25;76.36
13029;BME280;6581;42.662;23.402;2023-02-10T06:58:41;97159.66;;;-6.21;76.32
13029;BME280;6581;42.662;23.402;2023-02-10T07:01:48;97161.81;;;-6.11;75.77
13029;BME280;6581;42.662;23.402;2023-02-10T07:04:37;97148.94;;;-6.18;76.33
13029;BME280;6581;42.662;23.402;2023-02-10T07:07:42;97133.06;;;-6.21;75.99
13029;BME280;6581;42.662;23.402;2023-02-10T07:14:50;97132.34;;;-5.97;75.87
13029;BME280;6581;42.662;23.402;2023-02-10T07:17:53;97149.78;;;-5.68;75.43
13029;BME280;6581;42.662;23.402;2023-02-10T07:20:52;97138.88;;;-5.70;75.15
13029;BME280;6581;42.662;23.402;2023-02-10T07:23:29;97122.41;;;-5.69;74.47
13029;BME280;6581;42.662;23.402;2023-02-10T07:27:19;97135.16;;;-5.49;74.68
13029;BME280;6581;42.662;23.402;2023-02-10T07:29:58;97142.75;;;-5.29;74.80
13029;BME280;6581;42.662;23.402;2023-02-10T07:32:51;97129.22;;;-5.31;74.52
13029;BME280;6581;42.662;23.402;2023-02-10T07:35:58;97129.31;;;-5.38;73.88
13029;BME280;6581;42.662;23.402;2023-02-10T07:38:36;97137.78;;;-5.31;73.82
13029;BME280;6581;42.662;23.402;2023-02-10T07:41:24;97141.97;;;-5.12;73.66
13029;BME280;6581;42.662;23.402;2023-02-10T07:44:06;97135.81;;;-5.11;72.76
13029;BME280;6581;42.662;23.402;2023-02-10T07:46:46;97121.63;;;-5.02;72.00
13029;BME280;6581;42.662;23.402;2023-02-10T07:49:46;97124.72;;;-4.93;71.56
13029;BME280;6581;42.662;23.402;2023-02-10T07:53:15;97136.84;;;-4.94;71.87
13029;BME280;6581;42.662;23.402;2023-02-10T07:56:25;97118.19;;;-4.96;71.43
13029;BME280;6581;42.662;23.402;2023-02-10T07:59:19;97149.47;;;-4.67;71.70
13029;BME280;6581;42.662;23.402;2023-02-10T08:01:55;97143.97;;;-4.71;70.96
13029;BME280;6581;42.662;23.402;2023-02-10T08:04:45;97140.81;;;-4.73;69.82
13029;BME280;6581;42.662;23.402;2023-02-10T08:07:16;97143.25;;;-4.60;69.70
13029;BME280;6581;42.662;23.402;2023-02-10T08:10:30;97121.69;;;-4.72;70.33
13029;BME280;6581;42.662;23.402;2023-02-10T08:13:20;97143.09;;;-4.47;68.84
13029;BME280;6581;42.662;23.402;2023-02-10T08:15:56;97136.78;;;-4.51;68.73
13029;BME280;6581;42.662;23.402;2023-02-10T08:19:04;97131.44;;;-4.37;68.13
13029;BME280;6581;42.662;23.402;2023-02-10T08:21:56;97116.41;;;-4.29;67.97
13029;BME280;6581;42.662;23.402;2023-02-10T08:24:35;97143.72;;;-4.03;68.17
13029;BME280;6581;42.662;23.402;2023-02-10T08:27:32;97135.97;;;-4.03;67.17
13029;BME280;6581;42.662;23.402;2023-02-10T08:30:34;97129.84;;;-3.90;66.80
13029;BME280;6581;42.662;23.402;2023-02-10T08:38:20;97123.66;;;-3.78;66.59
13029;BME280;6581;42.662;23.402;2023-02-10T08:41:17;97128.31;;;-3.68;65.63
13029;BME280;6581;42.662;23.402;2023-02-10T08:44:27;97120.97;;;-3.71;65.23
13029;BME280;6581;42.662;23.402;2023-02-10T08:47:50;97102.06;;;-3.72;65.24
13029;BME280;6581;42.662;23.402;2023-02-10T08:50:29;97117.53;;;-3.53;64.80
13029;BME280;6581;42.662;23.402;2023-02-10T08:53:07;97118.31;;;-3.53;65.20
13029;BME280;6581;42.662;23.402;2023-02-10T08:56:10;97114.06;;;-3.36;64.39
13029;BME280;6581;42.662;23.402;2023-02-10T08:59:47;97121.81;;;-3.01;63.89
13029;BME280;6581;42.662;23.402;2023-02-10T09:02:58;97103.56;;;-3.06;62.53
13029;BME280;6581;42.662;23.402;2023-02-10T09:05:56;97097.81;;;-2.96;61.85
13029;BME280;6581;42.662;23.402;2023-02-10T09:09:17;97093.25;;;-2.78;61.35
13029;BME280;6581;42.662;23.402;2023-02-10T09:12:16;97111.75;;;-2.62;61.56
13029;BME280;6581;42.662;23.402;2023-02-10T09:14:53;97108.00;;;-2.55;60.33
13029;BME280;6581;42.662;23.402;2023-02-10T09:17:40;97088.94;;;-2.60;60.94
13029;BME280;6581;42.662;23.402;2023-02-10T09:21:06;97112.28;;;-2.49;62.32
13029;BME280;6581;42.662;23.402;2023-02-10T09:24:06;97084.50;;;-2.48;61.84
13029;BME280;6581;42.662;23.402;2023-02-10T10:03:12;97067.13;;;-0.59;54.92
13029;BME280;6581;42.662;23.402;2023-02-10T10:42:27;97016.03;;;-0.17;52.02
13029;BME280;6581;42.662;23.402;2023-02-10T10:46:17;97014.50;;;-0.13;51.76
13029;BME280;6581;42.662;23.402;2023-02-10T10:49:53;97005.03;;;0.08;50.26
13029;BME280;6581;42.662;23.402;2023-02-10T12:38:23;96888.63;;;2.63;40.39
13029;BME280;6581;42.662;23.402;2023-02-10T15:42:26;96855.94;;;2.60;40.10
13029;BME280;6581;42.662;23.402;2023-02-10T16:50:57;96935.72;;;1.21;50.08
13029;BME280;6581;42.662;23.402;2023-02-10T16:53:32;96927.38;;;1.19;50.49
13029;BME280;6581;42.662;23.402;2023-02-10T16:56:41;96939.16;;;1.27;50.54
13029;BME280;6581;42.662;23.402;2023-02-10T17:14:19;96916.53;;;0.75;54.05
13029;BME280;6581;42.662;23.402;2023-02-10T17:20:23;96926.91;;;0.65;54.09
13029;BME280;6581;42.662;23.402;2023-02-10T17:23:39;96922.72;;;0.64;52.87
13029;BME280;6581;42.662;23.402;2023-02-10T17:26:31;96945.44;;;0.69;53.77
13029;BME280;6581;42.662;23.402;2023-02-10T17:30:37;96935.94;;;0.42;55.51
13029;BME280;6581;42.662;23.402;2023-02-10T17:33:56;96925.44;;;0.27;56.56
13029;BME280;6581;42.662;23.402;2023-02-10T17:38:11;96923.75;;;0.11;56.55
13029;BME280;6581;42.662;23.402;2023-02-10T17:42:27;96951.94;;;0.19;57.04
13029;BME280;6581;42.662;23.402;2023-02-10T18:24:35;96974.72;;;-0.03;57.64
13029;BME280;6581;42.662;23.402;2023-02-10T18:27:51;96978.69;;;0.05;57.22
13029;BME280;6581;42.662;23.402;2023-02-10T18:30:46;96986.06;;;0.13;56.35
13029;BME280;6581;42.662;23.402;2023-02-10T19:27:29;97009.38;;;-0.03;53.52
13029;BME280;6581;42.662;23.402;2023-02-10T19:34:38;97032.31;;;0.00;53.39
13029;BME280;6581;42.662;23.402;2023-02-10T19:45:42;97036.66;;;-0.10;53.35
13029;BME280;6581;42.662;23.402;2023-02-10T19:48:36;97015.09;;;-0.32;53.71
13029;BME280;6581;42.662;23.402;2023-02-10T19:51:50;97010.13;;;-0.34;53.14
13029;BME280;6581;42.662;23.402;2023-02-10T19:54:21;97029.00;;;-0.22;53.20
13029;BME280;6581;42.662;23.402;2023-02-10T19:57:32;97030.91;;;-0.12;53.15
13029;BME280;6581;42.662;23.402;2023-02-10T20:00:40;97031.88;;;-0.18;53.32
13029;BME280;6581;42.662;23.402;2023-02-10T20:03:18;97030.06;;;-0.18;53.59
13029;BME280;6581;42.662;23.402;2023-02-10T20:06:25;97032.69;;;-0.18;53.61
13029;BME280;6581;42.662;23.402;2023-02-10T20:09:13;97026.03;;;-0.30;53.82
13029;BME280;6581;42.662;23.402;2023-02-10T20:12:06;97041.16;;;-0.32;53.89
13029;BME280;6581;42.662;23.402;2023-02-10T20:14:54;97029.34;;;-0.40;54.48
13029;BME280;6581;42.662;23.402;2023-02-10T20:17:52;97039.81;;;-0.35;54.52
13029;BME280;6581;42.662;23.402;2023-02-10T20:20:36;97012.00;;;-0.56;54.93
13029;BME280;6581;42.662;23.402;2023-02-10T20:26:09;97030.34;;;-0.46;55.56
13029;BME280;6581;42.662;23.402;2023-02-10T20:28:49;97040.03;;;-0.36;55.18
13029;BME280;6581;42.662;23.402;2023-02-10T20:31:35;97035.16;;;-0.55;55.63
13029;BME280;6581;42.662;23.402;2023-02-10T20:34:15;97015.56;;;-0.62;55.83
13029;BME280;6581;42.662;23.402;2023-02-10T20:36:55;97028.47;;;-0.51;55.52
13029;BME280;6581;42.662;23.402;2023-02-10T20:39:36;97030.28;;;-0.51;55.97
13029;BME280;6581;42.662;23.402;2023-02-10T20:42:42;97038.19;;;-0.63;56.53
13029;BME280;6581;42.662;23.402;2023-02-10T20:45:47;97040.91;;;-0.53;56.53
13029;BME280;6581;42.662;23.402;2023-02-10T20:48:20;97051.50;;;-0.59;57.02
13029;BME280;6581;42.662;23.402;2023-02-10T20:50:58;97031.13;;;-0.67;57.06
13029;BME280;6581;42.662;23.402;2023-02-10T20:53:34;97011.69;;;-0.81;57.83
13029;BME280;6581;42.662;23.402;2023-02-10T20:56:15;97008.06;;;-0.80;57.94
13029;BME280;6581;42.662;23.402;2023-02-10T20:58:48;97040.00;;;-0.63;58.33
13029;BME280;6581;42.662;23.402;2023-02-10T21:01:23;97046.22;;;-0.69;58.74
13029;BME280;6581;42.662;23.402;2023-02-10T21:03:58;97015.81;;;-0.85;59.23
13029;BME280;6581;42.662;23.402;2023-02-10T21:06:48;97040.22;;;-0.70;62.67
13029;BME280;6581;42.662;23.402;2023-02-10T21:09:37;97025.63;;;-0.71;61.25
13029;BME280;6581;42.662;23.402;2023-02-10T21:12:36;97020.72;;;-0.67;60.92
13029;BME280;6581;42.662;23.402;2023-02-10T21:15:21;97030.94;;;-0.61;61.93
13029;BME280;6581;42.662;23.402;2023-02-10T21:18:38;97021.72;;;-0.68;60.26
13029;BME280;6581;42.662;23.402;2023-02-10T21:21:27;97025.56;;;-0.76;60.80
13029;BME280;6581;42.662;23.402;2023-02-10T21:24:26;97012.50;;;-0.81;61.09
13029;BME280;6581;42.662;23.402;2023-02-10T21:26:58;97004.91;;;-0.82;61.23
13029;BME280;6581;42.662;23.402;2023-02-10T21:29:33;97010.75;;;-0.97;61.46
13029;BME280;6581;42.662;23.402;2023-02-10T21:32:08;97029.38;;;-0.83;61.97
13029;BME280;6581;42.662;23.402;2023-02-10T21:34:48;97021.50;;;-0.88;61.91
13029;BME280;6581;42.662;23.402;2023-02-10T21:37:20;97026.16;;;-0.91;62.24
13029;BME280;6581;42.662;23.402;2023-02-10T21:39:56;97033.97;;;-0.91;62.66
13029;BME280;6581;42.662;23.402;2023-02-10T21:42:40;97030.84;;;-0.93;62.66
13029;BME280;6581;42.662;23.402;2023-02-10T21:45:13;97034.47;;;-0.94;62.85
13029;BME280;6581;42.662;23.402;2023-02-10T21:48:17;97031.06;;;-0.94;63.33
13029;BME280;6581;42.662;23.402;2023-02-10T21:50:56;97034.47;;;-0.94;63.50
13029;BME280;6581;42.662;23.402;2023-02-10T21:53:57;97032.75;;;-1.05;63.91
13029;BME280;6581;42.662;23.402;2023-02-10T21:56:35;97030.16;;;-1.05;63.97
13029;BME280;6581;42.662;23.402;2023-02-10T21:59:17;97029.53;;;-1.12;64.29
13029;BME280;6581;42.662;23.402;2023-02-10T22:01:57;97027.44;;;-1.15;64.32
13029;BME280;6581;42.662;23.402;2023-02-10T22:04:31;97033.25;;;-1.08;64.50
13029;BME280;6581;42.662;23.402;2023-02-10T22:07:03;97041.53;;;-1.11;64.84
13029;BME280;6581;42.662;23.402;2023-02-10T22:09:54;97034.97;;;-1.13;65.21
13029;BME280;6581;42.662;23.402;2023-02-10T22:12:30;97016.34;;;-1.27;64.87
13029;BME280;6581;42.662;23.402;2023-02-10T22:15:20;97018.88;;;-1.32;65.27
13029;BME280;6581;42.662;23.402;2023-02-10T22:18:07;97029.59;;;-1.28;65.84
13029;BME280;6581;42.662;23.402;2023-02-10T22:20:47;97048.41;;;-1.21;65.83
13029;BME280;6581;42.662;23.402;2023-02-10T22:23:29;97033.16;;;-1.35;65.86
13029;BME280;6581;42.662;23.402;2023-02-10T22:26:04;97051.56;;;-1.19;66.11
13029;BME280;6581;42.662;23.402;2023-02-10T22:28:42;97041.16;;;-1.19;66.03
13029;BME280;6581;42.662;23.402;2023-02-10T22:31:22;97040.59;;;-1.21;66.04
13029;BME280;6581;42.662;23.402;2023-02-10T22:34:22;97050.63;;;-1.30;66.27
13029;BME280;6581;42.662;23.402;2023-02-10T22:37:10;97051.88;;;-1.33;66.07
13029;BME280;6581;42.662;23.402;2023-02-10T22:40:02;97029.91;;;-1.42;67.14
13029;BME280;6581;42.662;23.402;2023-02-10T22:42:49;97045.50;;;-1.25;66.58
13029;BME280;6581;42.662;23.402;2023-02-10T22:45:28;97054.25;;;-1.31;66.75
13029;BME280;6581;42.662;23.402;2023-02-10T22:48:02;97043.38;;;-1.45;67.29
13029;BME280;6581;42.662;23.402;2023-02-10T22:50:42;97038.19;;;-1.45;67.02
13029;BME280;6581;42.662;23.402;2023-02-10T22:53:10;97032.69;;;-1.48;67.06
13029;BME280;6581;42.662;23.402;2023-02-10T22:55:46;97017.00;;;-1.53;67.26
13029;BME280;6581;42.662;23.402;2023-02-10T22:58:26;97037.25;;;-1.39;66.91
13029;BME280;6581;42.662;23.402;2023-02-10T23:01:22;97014.25;;;-1.63;67.26
13029;BME280;6581;42.662;23.402;2023-02-10T23:04:04;97019.53;;;-1.58;67.24
13029;BME280;6581;42.662;23.402;2023-02-10T23:06:39;97028.13;;;-1.58;67.36
13029;BME280;6581;42.662;23.402;2023-02-10T23:09:29;97041.84;;;-1.62;67.68
13029;BME280;6581;42.662;23.402;2023-02-10T23:12:17;97039.84;;;-1.55;67.39
13029;BME280;6581;42.662;23.402;2023-02-10T23:14:47;97013.72;;;-1.82;67.55
13029;BME280;6581;42.662;23.402;2023-02-10T23:17:20;97010.09;;;-1.81;67.73
13029;BME280;6581;42.662;23.402;2023-02-10T23:19:58;97006.31;;;-1.90;68.18
13029;BME280;6581;42.662;23.402;2023-02-10T23:22:50;97034.66;;;-1.72;67.84
13029;BME280;6581;42.662;23.402;2023-02-10T23:28:32;97023.94;;;-1.92;68.23
13029;BME280;6581;42.662;23.402;2023-02-10T23:31:23;97026.19;;;-1.84;67.92
13029;BME280;6581;42.662;23.402;2023-02-10T23:34:30;97024.38;;;-1.84;67.83
13029;BME280;6581;42.662;23.402;2023-02-10T23:37:11;97042.16;;;-1.75;67.62
13029;BME280;6581;42.662;23.402;2023-02-10T23:40:02;97033.41;;;-1.86;67.50
13029;BME280;6581;42.662;23.402;2023-02-10T23:42:47;97041.19;;;-1.86;67.92
13029;BME280;6581;42.662;23.402;2023-02-10T23:45:27;97024.03;;;-2.04;68.38
13029;BME280;6581;42.662;23.402;2023-02-10T23:48:01;97027.03;;;-2.12;68.46
13029;BME280;6581;42.662;23.402;2023-02-10T23:51:03;97044.63;;;-2.14;68.98
13029;BME280;6581;42.662;23.402;2023-02-10T23:53:59;97015.75;;;-2.34;69.71
13029;BME280;6581;42.662;23.402;2023-02-10T23:57:06;97024.84;;;-2.32;70.27
13029;BME280;6581;42.662;23.402;2023-02-10T23:59:43;97033.28;;;-2.25;70.15
